sensor_id;sensor_type;location;lat;lon;timestamp;pressure;altitude;pressure_sealevel;temperature;humidity
7105;BME280;3594;42.152;24.714;2023-05-18T00:00:45;-24193.91;;;13.50;nan
7105;BME280;3594;42.152;24.714;2023-05-18T00:03:11;-24195.75;;;13.57;nan
7105;BME280;3594;42.152;24.714;2023-05-18T00:05:36;-24200.81;;;13.75;nan
7105;BME280;3594;42.152;24.714;2023-05-18T00:08:02;-24206.97;;;13.97;nan
7105;BME280;3594;42.152;24.714;2023-05-18T00:10:28;-24199.69;;;13.71;nan
7105;BME280;3594;42.152;24.714;2023-05-18T00:12:54;-24202.06;;;13.80;nan
7105;BME280;3594;42.152;24.714;2023-05-18T00:15:20;-24204.88;;;13.90;nan
7105;BME280;3594;42.152;24.714;2023-05-18T00:17:45;-24200.25;;;13.73;nan
7105;BME280;3594;42.152;24.714;2023-05-18T00:20:11;-24194.34;;;13.52;nan
7105;BME280;3594;42.152;24.714;2023-05-18T00:22:37;-24197.28;;;13.62;nan
7105;BME280;3594;42.152;24.714;2023-05-18T00:25:07;-24195.75;;;13.57;nan
7105;BME280;3594;42.152;24.714;2023-05-18T00:27:32;-24197.72;;;13.64;nan
7105;BME280;3594;42.152;24.714;2023-05-18T00:29:57;-24192.25;;;13.44;nan
7105;BME280;3594;42.152;24.714;2023-05-18T00:32:23;-24192.66;;;13.46;nan
7105;BME280;3594;42.152;24.714;2023-05-18T00:34:48;-24186.19;;;13.22;nan
7105;BME280;3594;42.152;24.714;2023-05-18T00:37:14;-24183.09;;;13.11;nan
7105;BME280;3594;42.152;24.714;2023-05-18T00:39:39;-24190.00;;;13.36;nan
7105;BME280;3594;42.152;24.714;2023-05-18T00:42:04;-24188.59;;;13.31;nan
7105;BME280;3594;42.152;24.714;2023-05-18T00:44:30;-24178.19;;;12.94;nan
7105;BME280;3594;42.152;24.714;2023-05-18T00:46:55;-24181.69;;;13.06;nan
7105;BME280;3594;42.152;24.714;2023-05-18T00:49:21;-24184.66;;;13.17;nan
7105;BME280;3594;42.152;24.714;2023-05-18T00:51:46;-24182.97;;;13.11;nan
7105;BME280;3594;42.152;24.714;2023-05-18T00:54:13;-24182.69;;;13.10;nan
7105;BME280;3594;42.152;24.714;2023-05-18T00:56:39;-24171.44;;;12.69;nan
7105;BME280;3594;42.152;24.714;2023-05-18T00:59:06;-24180.28;;;13.01;nan
7105;BME280;3594;42.152;24.714;2023-05-18T01:01:33;-24181.84;;;13.07;nan
7105;BME280;3594;42.152;24.714;2023-05-18T01:04:00;-24175.94;;;12.85;nan
7105;BME280;3594;42.152;24.714;2023-05-18T01:06:27;-24177.47;;;12.91;nan
7105;BME280;3594;42.152;24.714;2023-05-18T01:08:57;-24184.09;;;13.15;nan
7105;BME280;3594;42.152;24.714;2023-05-18T01:11:42;-24184.22;;;13.15;nan
7105;BME280;3594;42.152;24.714;2023-05-18T01:16:56;-24180.84;;;13.03;nan
7105;BME280;3594;42.152;24.714;2023-05-18T01:22:42;-24174.53;;;12.80;nan
7105;BME280;3594;42.152;24.714;2023-05-18T01:25:33;-24179.59;;;12.99;nan
7105;BME280;3594;42.152;24.714;2023-05-18T01:28:08;-24182.53;;;13.09;nan
7105;BME280;3594;42.152;24.714;2023-05-18T01:30:40;-24178.03;;;12.93;nan
7105;BME280;3594;42.152;24.714;2023-05-18T01:33:15;-24179.44;;;12.98;nan
7105;BME280;3594;42.152;24.714;2023-05-18T01:35:44;-24175.22;;;12.83;nan
7105;BME280;3594;42.152;24.714;2023-05-18T01:38:16;-24181.41;;;13.05;nan
7105;BME280;3594;42.152;24.714;2023-05-18T01:43:43;-24176.78;;;12.89;nan
7105;BME280;3594;42.152;24.714;2023-05-18T01:49:14;-24177.75;;;12.92;nan
7105;BME280;3594;42.152;24.714;2023-05-18T01:54:12;-24173.41;;;12.76;nan
7105;BME280;3594;42.152;24.714;2023-05-18T01:56:41;-24170.59;;;12.66;nan
7105;BME280;3594;42.152;24.714;2023-05-18T01:59:07;-24177.19;;;12.90;nan
7105;BME280;3594;42.152;24.714;2023-05-18T02:01:33;-24179.16;;;12.97;nan
7105;BME280;3594;42.152;24.714;2023-05-18T02:03:58;-24179.31;;;12.98;nan
7105;BME280;3594;42.152;24.714;2023-05-18T02:06:23;-24170.31;;;12.65;nan
7105;BME280;3594;42.152;24.714;2023-05-18T02:08:49;-24172.13;;;12.72;nan
7105;BME280;3594;42.152;24.714;2023-05-18T02:11:15;-24176.06;;;12.86;nan
7105;BME280;3594;42.152;24.714;2023-05-18T02:13:41;-24174.81;;;12.81;nan
7105;BME280;3594;42.152;24.714;2023-05-18T02:16:06;-24174.66;;;12.81;nan
7105;BME280;3594;42.152;24.714;2023-05-18T02:18:32;-24177.75;;;12.92;nan
7105;BME280;3594;42.152;24.714;2023-05-18T02:21:01;-24174.38;;;12.80;nan
7105;BME280;3594;42.152;24.714;2023-05-18T02:23:27;-24171.28;;;12.69;nan
7105;BME280;3594;42.152;24.714;2023-05-18T02:25:52;-24173.69;;;12.77;nan
7105;BME280;3594;42.152;24.714;2023-05-18T02:28:21;-24179.88;;;13.00;nan
7105;BME280;3594;42.152;24.714;2023-05-18T02:30:47;-24185.22;;;13.19;nan
7105;BME280;3594;42.152;24.714;2023-05-18T02:33:12;-24178.31;;;12.94;nan
7105;BME280;3594;42.152;24.714;2023-05-18T02:35:37;-24187.31;;;13.26;nan
7105;BME280;3594;42.152;24.714;2023-05-18T02:38:05;-24189.00;;;13.33;nan
7105;BME280;3594;42.152;24.714;2023-05-18T02:40:30;-24189.28;;;13.34;nan
7105;BME280;3594;42.152;24.714;2023-05-18T02:42:56;-24191.13;;;13.40;nan
7105;BME280;3594;42.152;24.714;2023-05-18T02:45:21;-24188.44;;;13.31;nan
7105;BME280;3594;42.152;24.714;2023-05-18T02:47:47;-24183.25;;;13.12;nan
7105;BME280;3594;42.152;24.714;2023-05-18T02:50:12;-24191.81;;;13.43;nan
7105;BME280;3594;42.152;24.714;2023-05-18T02:52:38;-24192.66;;;13.46;nan
7105;BME280;3594;42.152;24.714;2023-05-18T02:55:04;-24193.78;;;13.50;nan
7105;BME280;3594;42.152;24.714;2023-05-18T02:57:30;-24185.34;;;13.19;nan
7105;BME280;3594;42.152;24.714;2023-05-18T02:59:57;-24192.53;;;13.45;nan
7105;BME280;3594;42.152;24.714;2023-05-18T03:02:23;-24188.16;;;13.30;nan
7105;BME280;3594;42.152;24.714;2023-05-18T03:04:49;-24189.28;;;13.34;nan
7105;BME280;3594;42.152;24.714;2023-05-18T03:07:24;-24194.19;;;13.51;nan
7105;BME280;3594;42.152;24.714;2023-05-18T03:09:51;-24197.72;;;13.64;nan
7105;BME280;3594;42.152;24.714;2023-05-18T03:12:17;-24189.72;;;13.35;nan
7105;BME280;3594;42.152;24.714;2023-05-18T03:14:42;-24190.56;;;13.38;nan
7105;BME280;3594;42.152;24.714;2023-05-18T03:17:07;-24200.09;;;13.73;nan
7105;BME280;3594;42.152;24.714;2023-05-18T03:19:33;-24200.25;;;13.73;nan
7105;BME280;3594;42.152;24.714;2023-05-18T03:21:59;-24199.97;;;13.72;nan
7105;BME280;3594;42.152;24.714;2023-05-18T03:24:25;-24199.53;;;13.70;nan
7105;BME280;3594;42.152;24.714;2023-05-18T03:26:54;-24193.78;;;13.50;nan
7105;BME280;3594;42.152;24.714;2023-05-18T03:29:21;-24200.81;;;13.75;nan
7105;BME280;3594;42.152;24.714;2023-05-18T03:31:47;-24192.53;;;13.45;nan
7105;BME280;3594;42.152;24.714;2023-05-18T03:34:13;-24194.34;;;13.52;nan
7105;BME280;3594;42.152;24.714;2023-05-18T03:36:38;-24200.66;;;13.75;nan
7105;BME280;3594;42.152;24.714;2023-05-18T03:39:04;-24188.44;;;13.31;nan
7105;BME280;3594;42.152;24.714;2023-05-18T03:41:32;-24198.56;;;13.67;nan
7105;BME280;3594;42.152;24.714;2023-05-18T03:43:58;-24190.13;;;13.37;nan
7105;BME280;3594;42.152;24.714;2023-05-18T03:46:23;-24193.63;;;13.49;nan
7105;BME280;3594;42.152;24.714;2023-05-18T03:48:49;-24194.34;;;13.52;nan
7105;BME280;3594;42.152;24.714;2023-05-18T03:51:15;-24199.13;;;13.69;nan
7105;BME280;3594;42.152;24.714;2023-05-18T03:53:40;-24198.97;;;13.68;nan
7105;BME280;3594;42.152;24.714;2023-05-18T03:56:06;-24198.13;;;13.65;nan
7105;BME280;3594;42.152;24.714;2023-05-18T03:58:32;-24198.41;;;13.66;nan
7105;BME280;3594;42.152;24.714;2023-05-18T04:00:59;-24196.16;;;13.58;nan
7105;BME280;3594;42.152;24.714;2023-05-18T04:03:25;-24194.91;;;13.54;nan
7105;BME280;3594;42.152;24.714;2023-05-18T04:05:51;-24186.75;;;13.24;nan
7105;BME280;3594;42.152;24.714;2023-05-18T04:08:18;-24197.72;;;13.64;nan
7105;BME280;3594;42.152;24.714;2023-05-18T04:10:44;-24201.63;;;13.78;nan
7105;BME280;3594;42.152;24.714;2023-05-18T04:13:10;-24199.13;;;13.69;nan
7105;BME280;3594;42.152;24.714;2023-05-18T04:15:36;-24204.03;;;13.87;nan
7105;BME280;3594;42.152;24.714;2023-05-18T04:18:02;-24201.91;;;13.79;nan
7105;BME280;3594;42.152;24.714;2023-05-18T04:20:28;-24195.75;;;13.57;nan
7105;BME280;3594;42.152;24.714;2023-05-18T04:22:55;-24202.91;;;13.83;nan
7105;BME280;3594;42.152;24.714;2023-05-18T04:25:22;-24196.59;;;13.60;nan
7105;BME280;3594;42.152;24.714;2023-05-18T04:27:52;-24208.66;;;14.03;nan
7105;BME280;3594;42.152;24.714;2023-05-18T04:30:19;-24209.22;;;14.05;nan
7105;BME280;3594;42.152;24.714;2023-05-18T04:32:46;-24206.28;;;13.95;nan
7105;BME280;3594;42.152;24.714;2023-05-18T04:35:12;-24193.06;;;13.47;nan
7105;BME280;3594;42.152;24.714;2023-05-18T04:37:37;-24194.34;;;13.52;nan
7105;BME280;3594;42.152;24.714;2023-05-18T04:40:08;-24192.09;;;13.44;nan
7105;BME280;3594;42.152;24.714;2023-05-18T04:42:42;-24201.22;;;13.77;nan
7105;BME280;3594;42.152;24.714;2023-05-18T04:45:15;-24206.97;;;13.97;nan
7105;BME280;3594;42.152;24.714;2023-05-18T04:47:42;-24199.25;;;13.69;nan
7105;BME280;3594;42.152;24.714;2023-05-18T04:50:16;-24206.13;;;13.94;nan
7105;BME280;3594;42.152;24.714;2023-05-18T04:52:43;-24204.03;;;13.87;nan
7105;BME280;3594;42.152;24.714;2023-05-18T04:55:16;-24206.00;;;13.94;nan
7105;BME280;3594;42.152;24.714;2023-05-18T04:57:44;-24199.13;;;13.69;nan
7105;BME280;3594;42.152;24.714;2023-05-18T05:00:09;-24199.41;;;13.70;nan
7105;BME280;3594;42.152;24.714;2023-05-18T05:02:37;-24206.84;;;13.97;nan
7105;BME280;3594;42.152;24.714;2023-05-18T05:05:02;-24208.81;;;14.04;nan
7105;BME280;3594;42.152;24.714;2023-05-18T05:07:28;-24209.50;;;14.06;nan
7105;BME280;3594;42.152;24.714;2023-05-18T05:09:53;-24203.59;;;13.85;nan
7105;BME280;3594;42.152;24.714;2023-05-18T05:12:18;-24206.41;;;13.95;nan
7105;BME280;3594;42.152;24.714;2023-05-18T05:14:44;-24208.09;;;14.01;nan
7105;BME280;3594;42.152;24.714;2023-05-18T05:17:09;-24206.28;;;13.95;nan
7105;BME280;3594;42.152;24.714;2023-05-18T05:19:36;-24218.75;;;14.40;nan
7105;BME280;3594;42.152;24.714;2023-05-18T05:22:02;-24217.34;;;14.35;nan
7105;BME280;3594;42.152;24.714;2023-05-18T05:24:27;-24217.94;;;14.37;nan
7105;BME280;3594;42.152;24.714;2023-05-18T05:26:52;-24210.91;;;14.11;nan
7105;BME280;3594;42.152;24.714;2023-05-18T05:29:18;-24216.38;;;14.31;nan
7105;BME280;3594;42.152;24.714;2023-05-18T05:31:44;-24211.47;;;14.13;nan
7105;BME280;3594;42.152;24.714;2023-05-18T05:34:10;-24215.81;;;14.29;nan
7105;BME280;3594;42.152;24.714;2023-05-18T05:36:36;-24216.38;;;14.31;nan
7105;BME280;3594;42.152;24.714;2023-05-18T05:39:01;-24210.34;;;14.09;nan
7105;BME280;3594;42.152;24.714;2023-05-18T05:41:27;-24213.56;;;14.21;nan
7105;BME280;3594;42.152;24.714;2023-05-18T05:43:52;-24212.88;;;14.19;nan
7105;BME280;3594;42.152;24.714;2023-05-18T05:46:17;-24205.28;;;13.91;nan
7105;BME280;3594;42.152;24.714;2023-05-18T05:48:43;-24211.59;;;14.14;nan
7105;BME280;3594;42.152;24.714;2023-05-18T05:51:08;-24203.31;;;13.84;nan
7105;BME280;3594;42.152;24.714;2023-05-18T05:53:34;-24211.75;;;14.14;nan
7105;BME280;3594;42.152;24.714;2023-05-18T05:55:59;-24215.53;;;14.28;nan
7105;BME280;3594;42.152;24.714;2023-05-18T05:58:24;-24209.91;;;14.08;nan
7105;BME280;3594;42.152;24.714;2023-05-18T06:00:50;-24212.44;;;14.17;nan
7105;BME280;3594;42.152;24.714;2023-05-18T06:03:15;-24215.94;;;14.30;nan
7105;BME280;3594;42.152;24.714;2023-05-18T06:05:41;-24219.75;;;14.43;nan
7105;BME280;3594;42.152;24.714;2023-05-18T06:08:06;-24218.91;;;14.40;nan
7105;BME280;3594;42.152;24.714;2023-05-18T06:10:32;-24222.13;;;14.52;nan
7105;BME280;3594;42.152;24.714;2023-05-18T06:12:57;-24221.00;;;14.48;nan
7105;BME280;3594;42.152;24.714;2023-05-18T06:15:23;-24225.78;;;14.65;nan
7105;BME280;3594;42.152;24.714;2023-05-18T06:17:48;-24219.75;;;14.43;nan
7105;BME280;3594;42.152;24.714;2023-05-18T06:20:14;-24217.78;;;14.36;nan
7105;BME280;3594;42.152;24.714;2023-05-18T06:22:39;-24212.72;;;14.18;nan
7105;BME280;3594;42.152;24.714;2023-05-18T06:25:05;-24223.53;;;14.57;nan
7105;BME280;3594;42.152;24.714;2023-05-18T06:27:30;-24230.53;;;14.82;nan
7105;BME280;3594;42.152;24.714;2023-05-18T06:29:56;-24234.19;;;14.95;nan
7105;BME280;3594;42.152;24.714;2023-05-18T06:32:21;-24225.78;;;14.65;nan
7105;BME280;3594;42.152;24.714;2023-05-18T06:34:47;-24243.72;;;15.30;nan
7105;BME280;3594;42.152;24.714;2023-05-18T06:37:16;-24245.38;;;15.36;nan
7105;BME280;3594;42.152;24.714;2023-05-18T06:39:41;-24253.78;;;15.66;nan
7105;BME280;3594;42.152;24.714;2023-05-18T06:42:07;-24260.66;;;15.91;nan
7105;BME280;3594;42.152;24.714;2023-05-18T06:44:32;-24266.09;;;16.11;nan
7105;BME280;3594;42.152;24.714;2023-05-18T06:46:59;-24269.19;;;16.22;nan
7105;BME280;3594;42.152;24.714;2023-05-18T06:49:24;-24271.13;;;16.29;nan
7105;BME280;3594;42.152;24.714;2023-05-18T06:51:50;-24277.56;;;16.52;nan
7105;BME280;3594;42.152;24.714;2023-05-18T06:54:16;-24278.13;;;16.54;nan
7105;BME280;3594;42.152;24.714;2023-05-18T06:56:41;-24272.81;;;16.35;nan
7105;BME280;3594;42.152;24.714;2023-05-18T06:59:07;-24277.16;;;16.51;nan
7105;BME280;3594;42.152;24.714;2023-05-18T07:01:32;-24274.78;;;16.42;nan
7105;BME280;3594;42.152;24.714;2023-05-18T07:03:58;-24265.69;;;16.09;nan
7105;BME280;3594;42.152;24.714;2023-05-18T07:06:24;-24272.25;;;16.33;nan
7105;BME280;3594;42.152;24.714;2023-05-18T07:08:49;-24266.38;;;16.12;nan
7105;BME280;3594;42.152;24.714;2023-05-18T07:11:15;-24269.19;;;16.22;nan
7105;BME280;3594;42.152;24.714;2023-05-18T07:13:40;-24263.88;;;16.03;nan
7105;BME280;3594;42.152;24.714;2023-05-18T07:16:06;-24278.97;;;16.57;nan
7105;BME280;3594;42.152;24.714;2023-05-18T07:21:01;-24275.06;;;16.43;nan
7105;BME280;3594;42.152;24.714;2023-05-18T07:23:26;-24274.34;;;16.41;nan
7105;BME280;3594;42.152;24.714;2023-05-18T07:25:52;-24272.13;;;16.32;nan
7105;BME280;3594;42.152;24.714;2023-05-18T07:28:18;-24265.00;;;16.07;nan
7105;BME280;3594;42.152;24.714;2023-05-18T07:30:43;-24269.31;;;16.22;nan
7105;BME280;3594;42.152;24.714;2023-05-18T07:33:09;-24267.50;;;16.16;nan
7105;BME280;3594;42.152;24.714;2023-05-18T07:35:35;-24271.84;;;16.31;nan
7105;BME280;3594;42.152;24.714;2023-05-18T07:38:00;-24273.50;;;16.38;nan
7105;BME280;3594;42.152;24.714;2023-05-18T07:40:26;-24265.00;;;16.07;nan
7105;BME280;3594;42.152;24.714;2023-05-18T07:42:51;-24278.69;;;16.56;nan
7105;BME280;3594;42.152;24.714;2023-05-18T07:45:16;-24279.53;;;16.59;nan
7105;BME280;3594;42.152;24.714;2023-05-18T07:47:42;-24283.59;;;16.74;nan
7105;BME280;3594;42.152;24.714;2023-05-18T07:50:08;-24283.88;;;16.75;nan
7105;BME280;3594;42.152;24.714;2023-05-18T07:52:33;-24289.03;;;16.94;nan
7105;BME280;3594;42.152;24.714;2023-05-18T07:54:59;-24282.03;;;16.68;nan
7105;BME280;3594;42.152;24.714;2023-05-18T07:57:25;-24284.28;;;16.76;nan
7105;BME280;3594;42.152;24.714;2023-05-18T07:59:51;-24284.41;;;16.77;nan
7105;BME280;3594;42.152;24.714;2023-05-18T08:02:17;-24281.78;;;16.67;nan
7105;BME280;3594;42.152;24.714;2023-05-18T08:04:44;-24284.97;;;16.79;nan
7105;BME280;3594;42.152;24.714;2023-05-18T08:07:10;-24284.84;;;16.78;nan
7105;BME280;3594;42.152;24.714;2023-05-18T08:09:37;-24282.75;;;16.71;nan
7105;BME280;3594;42.152;24.714;2023-05-18T08:12:03;-24285.81;;;16.82;nan
7105;BME280;3594;42.152;24.714;2023-05-18T08:14:28;-24299.63;;;17.32;nan
7105;BME280;3594;42.152;24.714;2023-05-18T08:16:54;-24299.91;;;17.33;nan
7105;BME280;3594;42.152;24.714;2023-05-18T08:19:19;-24290.50;;;17.06;nan
7105;BME280;3594;42.152;24.714;2023-05-18T08:21:45;-24299.72;;;17.39;nan
7105;BME280;3594;42.152;24.714;2023-05-18T08:24:10;-24305.00;;;17.58;nan
7105;BME280;3594;42.152;24.714;2023-05-18T08:26:36;-23661.69;;;17.63;nan
7105;BME280;3594;42.152;24.714;2023-05-18T08:29:01;-22373.91;;;17.70;nan
7105;BME280;3594;42.152;24.714;2023-05-18T08:31:36;-22054.69;;;17.84;nan
7105;BME280;3594;42.152;24.714;2023-05-18T08:34:03;-21087.81;;;17.88;nan
7105;BME280;3594;42.152;24.714;2023-05-18T08:36:29;-22694.59;;;17.63;nan
7105;BME280;3594;42.152;24.714;2023-05-18T08:38:55;-21722.13;;;17.41;nan
7105;BME280;3594;42.152;24.714;2023-05-18T08:44:15;-20116.28;;;17.73;nan
7105;BME280;3594;42.152;24.714;2023-05-18T08:46:45;-18823.53;;;17.64;nan
7105;BME280;3594;42.152;24.714;2023-05-18T08:49:16;-16245.84;;;18.03;nan
7105;BME280;3594;42.152;24.714;2023-05-18T08:51:45;-15598.09;;;17.95;nan
7105;BME280;3594;42.152;24.714;2023-05-18T08:54:16;-15598.56;;;17.98;nan
7105;BME280;3594;42.152;24.714;2023-05-18T08:56:45;-8802.50;;;18.14;nan
7105;BME280;3594;42.152;24.714;2023-05-18T08:59:11;-11069.25;;;18.00;nan
7105;BME280;3594;42.152;24.714;2023-05-18T09:01:39;-12686.47;;;17.86;nan
7105;BME280;3594;42.152;24.714;2023-05-18T09:04:05;-15602.00;;;18.24;nan
7105;BME280;3594;42.152;24.714;2023-05-18T09:06:31;-11397.16;;;18.61;nan
7105;BME280;3594;42.152;24.714;2023-05-18T09:08:59;-9128.81;;;18.87;nan
7105;BME280;3594;42.152;24.714;2023-05-18T09:11:30;-7181.78;;;18.79;nan
7105;BME280;3594;42.152;24.714;2023-05-18T09:13:57;7129.78;;;18.77;nan
7105;BME280;3594;42.152;24.714;2023-05-18T09:16:23;3879.38;;;19.20;nan
7105;BME280;3594;42.152;24.714;2023-05-18T09:18:49;3558.44;;;19.49;nan
7105;BME280;3594;42.152;24.714;2023-05-18T09:21:14;3236.75;;;19.74;nan
7105;BME280;3594;42.152;24.714;2023-05-18T09:23:40;8462.38;;;19.90;nan
7105;BME280;3594;42.152;24.714;2023-05-18T09:26:06;10420.69;;;19.81;nan
7105;BME280;3594;42.152;24.714;2023-05-18T09:28:38;18605.28;;;19.89;nan
7105;BME280;3594;42.152;24.714;2023-05-18T09:31:06;25169.38;;;19.96;nan
7105;BME280;3594;42.152;24.714;2023-05-18T09:33:37;31750.50;;;20.07;nan
7105;BME280;3594;42.152;24.714;2023-05-18T09:36:04;28128.75;;;20.01;nan
7105;BME280;3594;42.152;24.714;2023-05-18T09:38:35;36707.09;;;20.31;nan
7105;BME280;3594;42.152;24.714;2023-05-18T09:41:01;44286.81;;;20.22;nan
7105;BME280;3594;42.152;24.714;2023-05-18T09:43:26;44173.44;;;20.10;nan
7105;BME280;3594;42.152;24.714;2023-05-18T09:45:52;50522.47;;;19.82;nan
7105;BME280;3594;42.152;24.714;2023-05-18T09:48:17;55209.31;;;19.58;nan
7105;BME280;3594;42.152;24.714;2023-05-18T09:50:43;54279.88;;;19.72;nan
7105;BME280;3594;42.152;24.714;2023-05-18T09:53:11;57413.53;;;19.94;nan
7105;BME280;3594;42.152;24.714;2023-05-18T09:55:44;59802.84;;;19.92;nan
7105;BME280;3594;42.152;24.714;2023-05-18T09:58:10;58848.66;;;19.82;nan
7105;BME280;3594;42.152;24.714;2023-05-18T10:00:45;58342.41;;;19.93;nan
7105;BME280;3594;42.152;24.714;2023-05-18T10:03:21;58436.47;;;20.35;nan
7105;BME280;3594;42.152;24.714;2023-05-18T10:05:47;59250.69;;;20.45;nan
7105;BME280;3594;42.152;24.714;2023-05-18T10:08:14;59755.03;;;20.96;nan
7105;BME280;3594;42.152;24.714;2023-05-18T10:10:46;60098.97;;;21.06;nan
7105;BME280;3594;42.152;24.714;2023-05-18T10:13:14;60347.91;;;21.08;nan
7105;BME280;3594;42.152;24.714;2023-05-18T10:16:01;60703.09;;;21.27;nan
7105;BME280;3594;42.152;24.714;2023-05-18T10:18:29;61052.34;;;21.09;nan
7105;BME280;3594;42.152;24.714;2023-05-18T10:20:57;60968.81;;;21.23;nan
7105;BME280;3594;42.152;24.714;2023-05-18T10:23:24;61473.00;;;21.18;nan
7105;BME280;3594;42.152;24.714;2023-05-18T10:25:51;61139.75;;;21.22;nan
7105;BME280;3594;42.152;24.714;2023-05-18T10:28:19;61237.75;;;20.54;nan
7105;BME280;3594;42.152;24.714;2023-05-18T10:30:50;61202.03;;;20.31;nan
7105;BME280;3594;42.152;24.714;2023-05-18T10:33:16;61324.88;;;20.41;nan
7105;BME280;3594;42.152;24.714;2023-05-18T10:35:44;61374.50;;;20.16;nan
7105;BME280;3594;42.152;24.714;2023-05-18T10:38:19;61358.69;;;20.25;nan
7105;BME280;3594;42.152;24.714;2023-05-18T10:40:46;61081.53;;;20.00;nan
7105;BME280;3594;42.152;24.714;2023-05-18T10:43:12;61219.75;;;20.03;nan
7105;BME280;3594;42.152;24.714;2023-05-18T10:45:40;61273.44;;;20.00;nan
7105;BME280;3594;42.152;24.714;2023-05-18T10:48:08;61345.03;;;20.17;nan
7105;BME280;3594;42.152;24.714;2023-05-18T10:50:34;61366.91;;;19.95;nan
7105;BME280;3594;42.152;24.714;2023-05-18T10:53:04;61374.13;;;20.06;nan
7105;BME280;3594;42.152;24.714;2023-05-18T10:55:30;61366.91;;;19.95;nan
7105;BME280;3594;42.152;24.714;2023-05-18T10:58:02;61409.25;;;19.82;nan
7105;BME280;3594;42.152;24.714;2023-05-18T11:00:30;61444.69;;;19.95;nan
7105;BME280;3594;42.152;24.714;2023-05-18T11:02:59;61349.50;;;19.75;nan
7105;BME280;3594;42.152;24.714;2023-05-18T11:05:25;61486.38;;;19.58;nan
7105;BME280;3594;42.152;24.714;2023-05-18T11:08:01;61173.72;;;19.45;nan
7105;BME280;3594;42.152;24.714;2023-05-18T11:10:43;61138.09;;;19.41;nan
7105;BME280;3594;42.152;24.714;2023-05-18T11:13:12;60500.44;;;19.36;nan
7105;BME280;3594;42.152;24.714;2023-05-18T11:18:25;59514.75;;;18.77;nan
7105;BME280;3594;42.152;24.714;2023-05-18T11:20:51;60595.16;;;18.83;nan
7105;BME280;3594;42.152;24.714;2023-05-18T11:23:16;60708.88;;;18.69;nan
7105;BME280;3594;42.152;24.714;2023-05-18T11:25:47;60379.06;;;18.47;nan
7105;BME280;3594;42.152;24.714;2023-05-18T11:28:13;60335.00;;;18.59;nan
7105;BME280;3594;42.152;24.714;2023-05-18T11:33:09;60658.63;;;18.31;nan
7105;BME280;3594;42.152;24.714;2023-05-18T11:36:04;60595.28;;;18.53;nan
7105;BME280;3594;42.152;24.714;2023-05-18T11:39:02;60363.81;;;18.57;nan
7105;BME280;3594;42.152;24.714;2023-05-18T11:41:30;60236.22;;;18.32;nan
7105;BME280;3594;42.152;24.714;2023-05-18T11:44:04;59856.78;;;18.19;nan
7105;BME280;3594;42.152;24.714;2023-05-18T11:49:23;59490.13;;;18.00;nan
7105;BME280;3594;42.152;24.714;2023-05-18T11:54:53;59323.97;;;18.04;nan
7105;BME280;3594;42.152;24.714;2023-05-18T11:57:40;59045.53;;;18.14;nan
7105;BME280;3594;42.152;24.714;2023-05-18T12:00:07;58216.78;;;18.15;nan
7105;BME280;3594;42.152;24.714;2023-05-18T12:02:34;56725.66;;;17.94;nan
7105;BME280;3594;42.152;24.714;2023-05-18T12:05:01;52491.97;;;17.27;nan
7105;BME280;3594;42.152;24.714;2023-05-18T12:07:31;50983.00;;;17.59;nan
7105;BME280;3594;42.152;24.714;2023-05-18T12:10:12;52833.72;;;17.21;nan
7105;BME280;3594;42.152;24.714;2023-05-18T12:12:41;52602.72;;;17.61;nan
7105;BME280;3594;42.152;24.714;2023-05-18T12:15:08;55340.81;;;17.92;nan
7105;BME280;3594;42.152;24.714;2023-05-18T12:17:38;56269.47;;;18.07;nan
7105;BME280;3594;42.152;24.714;2023-05-18T12:20:06;57285.56;;;18.03;nan
7105;BME280;3594;42.152;24.714;2023-05-18T12:22:31;57380.34;;;17.95;nan
7105;BME280;3594;42.152;24.714;2023-05-18T12:24:57;58382.78;;;17.96;nan
7105;BME280;3594;42.152;24.714;2023-05-18T12:27:22;57809.19;;;17.35;nan
7105;BME280;3594;42.152;24.714;2023-05-18T12:29:50;57884.91;;;17.70;nan
7105;BME280;3594;42.152;24.714;2023-05-18T12:32:16;57714.75;;;17.48;nan
7105;BME280;3594;42.152;24.714;2023-05-18T12:34:43;57914.78;;;17.17;nan
7105;BME280;3594;42.152;24.714;2023-05-18T12:37:11;58110.00;;;17.94;nan
7105;BME280;3594;42.152;24.714;2023-05-18T12:39:37;59486.72;;;17.63;nan
7105;BME280;3594;42.152;24.714;2023-05-18T12:42:10;59964.03;;;17.44;nan
7105;BME280;3594;42.152;24.714;2023-05-18T12:44:36;59332.91;;;17.24;nan
7105;BME280;3594;42.152;24.714;2023-05-18T12:47:02;59096.09;;;17.08;nan
7105;BME280;3594;42.152;24.714;2023-05-18T12:49:27;58610.00;;;17.64;nan
7105;BME280;3594;42.152;24.714;2023-05-18T12:51:54;59160.69;;;17.44;nan
7105;BME280;3594;42.152;24.714;2023-05-18T12:54:27;59543.28;;;17.99;nan
7105;BME280;3594;42.152;24.714;2023-05-18T12:56:54;59710.31;;;17.93;nan
7105;BME280;3594;42.152;24.714;2023-05-18T12:59:30;59843.72;;;17.95;nan
7105;BME280;3594;42.152;24.714;2023-05-18T13:01:56;60106.88;;;17.76;nan
7105;BME280;3594;42.152;24.714;2023-05-18T13:04:31;60346.25;;;17.84;nan
7105;BME280;3594;42.152;24.714;2023-05-18T13:06:57;60498.53;;;18.15;nan
7105;BME280;3594;42.152;24.714;2023-05-18T13:09:22;60731.41;;;17.98;nan
7105;BME280;3594;42.152;24.714;2023-05-18T13:11:51;60922.34;;;18.42;nan
7105;BME280;3594;42.152;24.714;2023-05-18T13:14:20;60797.25;;;18.25;nan
7105;BME280;3594;42.152;24.714;2023-05-18T13:16:50;60969.91;;;18.36;nan
7105;BME280;3594;42.152;24.714;2023-05-18T13:19:17;61038.06;;;18.46;nan
7105;BME280;3594;42.152;24.714;2023-05-18T13:21:53;61015.59;;;18.61;nan
7105;BME280;3594;42.152;24.714;2023-05-18T13:24:19;61022.69;;;18.53;nan
7105;BME280;3594;42.152;24.714;2023-05-18T13:26:45;61196.84;;;18.80;nan
7105;BME280;3594;42.152;24.714;2023-05-18T13:29:10;61152.97;;;18.87;nan
7105;BME280;3594;42.152;24.714;2023-05-18T13:31:35;61156.13;;;18.99;nan
7105;BME280;3594;42.152;24.714;2023-05-18T13:34:01;61118.88;;;18.07;nan
7105;BME280;3594;42.152;24.714;2023-05-18T13:36:27;61031.09;;;18.26;nan
7105;BME280;3594;42.152;24.714;2023-05-18T13:38:53;61046.63;;;18.38;nan
7105;BME280;3594;42.152;24.714;2023-05-18T13:41:19;60904.78;;;18.54;nan
7105;BME280;3594;42.152;24.714;2023-05-18T13:43:45;60930.72;;;18.73;nan
7105;BME280;3594;42.152;24.714;2023-05-18T13:46:10;60925.50;;;18.31;nan
7105;BME280;3594;42.152;24.714;2023-05-18T13:48:37;60899.28;;;18.57;nan
7105;BME280;3594;42.152;24.714;2023-05-18T13:51:02;60897.00;;;18.66;nan
7105;BME280;3594;42.152;24.714;2023-05-18T13:53:28;60956.22;;;18.87;nan
7105;BME280;3594;42.152;24.714;2023-05-18T13:55:53;61096.13;;;19.06;nan